Terminal Aerodrome Forecast
Issued by NWS

Home | Current Version | Previous Version | Text Only | Print | Product List | Glossary On
Versions: 1 2 3 4 5 6 7 8 9 10 11 12 13 14 15 16 17 18 19 20 21 22 23 24 25 26 27 28 29 30 31 32 33 34
130
FTUS44 KLIX 301120
TAFHDC
TAF
KHDC 301120Z 3012/3112 00000KT P6SM SKC
     FM301500 00000KT P6SM VCTS SCT040CB
     FM310000 23004KT P6SM BKN250
     FM310900 00000KT P6SM FEW250=

USA.gov is the U.S. government's official web portal to all federal, state and local government web resources and services.